sensor_id;sensor_type;location;lat;lon;timestamp;P1;durP1;ratioP1;P2;durP2;ratioP2
15393;SDS011;7795;47.986;11.868;2023-04-28T00:00:17;1.70;;;1.60;;
15393;SDS011;7795;47.986;11.868;2023-04-28T00:02:43;2.20;;;1.80;;
15393;SDS011;7795;47.986;11.868;2023-04-28T00:05:12;2.20;;;1.80;;
15393;SDS011;7795;47.986;11.868;2023-04-28T00:07:38;1.70;;;1.60;;
15393;SDS011;7795;47.986;11.868;2023-04-28T00:10:04;1.70;;;1.60;;
15393;SDS011;7795;47.986;11.868;2023-04-28T00:12:30;2.10;;;1.80;;
15393;SDS011;7795;47.986;11.868;2023-04-28T00:14:56;2.30;;;2.10;;
15393;SDS011;7795;47.986;11.868;2023-04-28T00:17:22;4.53;;;2.63;;
15393;SDS011;7795;47.986;11.868;2023-04-28T00:19:48;2.50;;;2.30;;
15393;SDS011;7795;47.986;11.868;2023-04-28T00:22:15;2.50;;;2.30;;
15393;SDS011;7795;47.986;11.868;2023-04-28T00:24:41;2.43;;;2.23;;
15393;SDS011;7795;47.986;11.868;2023-04-28T00:27:07;2.03;;;1.93;;
15393;SDS011;7795;47.986;11.868;2023-04-28T00:29:33;1.90;;;1.80;;
15393;SDS011;7795;47.986;11.868;2023-04-28T00:31:58;2.23;;;1.90;;
15393;SDS011;7795;47.986;11.868;2023-04-28T00:34:24;2.47;;;2.17;;
15393;SDS011;7795;47.986;11.868;2023-04-28T00:36:50;2.83;;;2.03;;
15393;SDS011;7795;47.986;11.868;2023-04-28T00:39:17;2.40;;;2.20;;
15393;SDS011;7795;47.986;11.868;2023-04-28T00:41:43;4.60;;;2.30;;
15393;SDS011;7795;47.986;11.868;2023-04-28T00:44:08;2.30;;;2.10;;
15393;SDS011;7795;47.986;11.868;2023-04-28T00:46:34;2.63;;;2.43;;
15393;SDS011;7795;47.986;11.868;2023-04-28T00:49:00;3.17;;;2.37;;
15393;SDS011;7795;47.986;11.868;2023-04-28T00:51:28;3.00;;;2.70;;
15393;SDS011;7795;47.986;11.868;2023-04-28T00:53:53;2.43;;;2.23;;
15393;SDS011;7795;47.986;11.868;2023-04-28T00:56:21;3.53;;;2.87;;
15393;SDS011;7795;47.986;11.868;2023-04-28T00:58:47;2.83;;;2.63;;
15393;SDS011;7795;47.986;11.868;2023-04-28T01:01:12;2.33;;;2.10;;
15393;SDS011;7795;47.986;11.868;2023-04-28T01:03:39;3.13;;;2.20;;
15393;SDS011;7795;47.986;11.868;2023-04-28T01:06:05;2.77;;;2.10;;
15393;SDS011;7795;47.986;11.868;2023-04-28T01:08:33;2.30;;;1.90;;
15393;SDS011;7795;47.986;11.868;2023-04-28T01:11:00;3.13;;;2.50;;
15393;SDS011;7795;47.986;11.868;2023-04-28T01:13:27;3.27;;;2.20;;
15393;SDS011;7795;47.986;11.868;2023-04-28T01:15:53;3.10;;;2.40;;
15393;SDS011;7795;47.986;11.868;2023-04-28T01:18:19;2.60;;;2.10;;
15393;SDS011;7795;47.986;11.868;2023-04-28T01:20:45;2.50;;;2.20;;
15393;SDS011;7795;47.986;11.868;2023-04-28T01:23:11;2.93;;;2.40;;
15393;SDS011;7795;47.986;11.868;2023-04-28T01:25:38;2.43;;;2.13;;
15393;SDS011;7795;47.986;11.868;2023-04-28T01:28:05;2.27;;;2.07;;
15393;SDS011;7795;47.986;11.868;2023-04-28T01:30:30;2.47;;;2.27;;
15393;SDS011;7795;47.986;11.868;2023-04-28T01:32:56;3.40;;;2.67;;
15393;SDS011;7795;47.986;11.868;2023-04-28T01:35:22;3.43;;;2.20;;
15393;SDS011;7795;47.986;11.868;2023-04-28T01:37:48;3.17;;;2.20;;
15393;SDS011;7795;47.986;11.868;2023-04-28T01:40:14;2.40;;;2.20;;
15393;SDS011;7795;47.986;11.868;2023-04-28T01:42:41;2.50;;;2.30;;
15393;SDS011;7795;47.986;11.868;2023-04-28T01:45:08;3.33;;;2.17;;
15393;SDS011;7795;47.986;11.868;2023-04-28T01:47:34;3.53;;;2.27;;
15393;SDS011;7795;47.986;11.868;2023-04-28T01:50:00;4.03;;;2.63;;
15393;SDS011;7795;47.986;11.868;2023-04-28T01:52:26;2.70;;;2.30;;
15393;SDS011;7795;47.986;11.868;2023-04-28T01:54:52;2.50;;;2.30;;
15393;SDS011;7795;47.986;11.868;2023-04-28T01:57:18;2.17;;;1.97;;
15393;SDS011;7795;47.986;11.868;2023-04-28T01:59:45;2.93;;;2.40;;
15393;SDS011;7795;47.986;11.868;2023-04-28T02:02:11;2.10;;;1.90;;
15393;SDS011;7795;47.986;11.868;2023-04-28T02:04:37;2.40;;;2.20;;
15393;SDS011;7795;47.986;11.868;2023-04-28T02:07:03;2.20;;;1.97;;
15393;SDS011;7795;47.986;11.868;2023-04-28T02:09:28;2.60;;;2.40;;
15393;SDS011;7795;47.986;11.868;2023-04-28T02:11:54;2.33;;;2.13;;
15393;SDS011;7795;47.986;11.868;2023-04-28T02:14:20;3.30;;;2.40;;
15393;SDS011;7795;47.986;11.868;2023-04-28T02:16:47;2.67;;;2.07;;
15393;SDS011;7795;47.986;11.868;2023-04-28T02:19:13;2.63;;;2.30;;
15393;SDS011;7795;47.986;11.868;2023-04-28T02:21:40;2.87;;;2.53;;
15393;SDS011;7795;47.986;11.868;2023-04-28T02:24:06;3.57;;;2.77;;
15393;SDS011;7795;47.986;11.868;2023-04-28T02:26:32;2.57;;;2.33;;
15393;SDS011;7795;47.986;11.868;2023-04-28T02:28:58;2.80;;;2.50;;
15393;SDS011;7795;47.986;11.868;2023-04-28T02:31:25;2.60;;;2.40;;
15393;SDS011;7795;47.986;11.868;2023-04-28T02:33:52;2.57;;;2.37;;
15393;SDS011;7795;47.986;11.868;2023-04-28T02:36:18;2.90;;;2.60;;
15393;SDS011;7795;47.986;11.868;2023-04-28T02:38:44;2.97;;;2.77;;
15393;SDS011;7795;47.986;11.868;2023-04-28T02:41:09;3.10;;;2.80;;
15393;SDS011;7795;47.986;11.868;2023-04-28T02:43:35;2.60;;;2.40;;
15393;SDS011;7795;47.986;11.868;2023-04-28T02:46:02;18.40;;;11.90;;
15393;SDS011;7795;47.986;11.868;2023-04-28T02:48:28;14.47;;;10.20;;
15393;SDS011;7795;47.986;11.868;2023-04-28T02:50:55;7.37;;;5.57;;
15393;SDS011;7795;47.986;11.868;2023-04-28T02:53:21;7.33;;;4.50;;
15393;SDS011;7795;47.986;11.868;2023-04-28T02:55:47;5.83;;;4.67;;
15393;SDS011;7795;47.986;11.868;2023-04-28T02:58:13;4.80;;;4.07;;
15393;SDS011;7795;47.986;11.868;2023-04-28T03:00:39;4.17;;;3.40;;
15393;SDS011;7795;47.986;11.868;2023-04-28T03:03:05;4.53;;;2.83;;
15393;SDS011;7795;47.986;11.868;2023-04-28T03:05:31;3.73;;;2.83;;
15393;SDS011;7795;47.986;11.868;2023-04-28T03:07:58;3.20;;;2.80;;
15393;SDS011;7795;47.986;11.868;2023-04-28T03:10:24;4.07;;;3.37;;
15393;SDS011;7795;47.986;11.868;2023-04-28T03:12:50;3.17;;;2.87;;
15393;SDS011;7795;47.986;11.868;2023-04-28T03:15:16;3.23;;;2.93;;
15393;SDS011;7795;47.986;11.868;2023-04-28T03:17:41;3.63;;;3.30;;
15393;SDS011;7795;47.986;11.868;2023-04-28T03:20:08;3.33;;;3.03;;
15393;SDS011;7795;47.986;11.868;2023-04-28T03:22:34;3.87;;;3.10;;
15393;SDS011;7795;47.986;11.868;2023-04-28T03:25:02;5.33;;;3.40;;
15393;SDS011;7795;47.986;11.868;2023-04-28T03:27:29;3.67;;;3.13;;
15393;SDS011;7795;47.986;11.868;2023-04-28T03:29:55;4.23;;;3.83;;
15393;SDS011;7795;47.986;11.868;2023-04-28T03:32:21;4.30;;;3.73;;
15393;SDS011;7795;47.986;11.868;2023-04-28T03:34:46;6.53;;;5.57;;
15393;SDS011;7795;47.986;11.868;2023-04-28T03:37:12;8.90;;;6.67;;
15393;SDS011;7795;47.986;11.868;2023-04-28T03:39:38;7.67;;;6.47;;
15393;SDS011;7795;47.986;11.868;2023-04-28T03:42:05;8.13;;;6.27;;
15393;SDS011;7795;47.986;11.868;2023-04-28T03:44:31;8.03;;;6.70;;
15393;SDS011;7795;47.986;11.868;2023-04-28T03:46:56;6.70;;;5.83;;
15393;SDS011;7795;47.986;11.868;2023-04-28T03:49:22;9.57;;;7.17;;
15393;SDS011;7795;47.986;11.868;2023-04-28T03:51:48;6.73;;;5.83;;
15393;SDS011;7795;47.986;11.868;2023-04-28T03:54:15;6.87;;;5.83;;
15393;SDS011;7795;47.986;11.868;2023-04-28T03:56:41;7.03;;;5.77;;
15393;SDS011;7795;47.986;11.868;2023-04-28T03:59:08;5.30;;;4.80;;
15393;SDS011;7795;47.986;11.868;2023-04-28T04:01:36;6.10;;;4.77;;
15393;SDS011;7795;47.986;11.868;2023-04-28T04:04:01;4.17;;;3.77;;
15393;SDS011;7795;47.986;11.868;2023-04-28T04:06:27;8.23;;;4.13;;
15393;SDS011;7795;47.986;11.868;2023-04-28T04:08:53;6.53;;;5.13;;
15393;SDS011;7795;47.986;11.868;2023-04-28T04:11:19;5.40;;;4.67;;
15393;SDS011;7795;47.986;11.868;2023-04-28T04:13:45;6.63;;;4.97;;
15393;SDS011;7795;47.986;11.868;2023-04-28T04:16:12;6.57;;;5.90;;
15393;SDS011;7795;47.986;11.868;2023-04-28T04:18:39;7.23;;;6.50;;
15393;SDS011;7795;47.986;11.868;2023-04-28T04:21:05;7.07;;;5.93;;
15393;SDS011;7795;47.986;11.868;2023-04-28T04:23:31;6.27;;;5.30;;
15393;SDS011;7795;47.986;11.868;2023-04-28T04:25:57;6.27;;;5.50;;
15393;SDS011;7795;47.986;11.868;2023-04-28T04:28:22;7.00;;;5.87;;
15393;SDS011;7795;47.986;11.868;2023-04-28T04:30:48;7.40;;;5.60;;
15393;SDS011;7795;47.986;11.868;2023-04-28T04:33:15;5.83;;;5.23;;
15393;SDS011;7795;47.986;11.868;2023-04-28T04:35:41;5.10;;;4.60;;
15393;SDS011;7795;47.986;11.868;2023-04-28T04:38:07;6.00;;;4.73;;
15393;SDS011;7795;47.986;11.868;2023-04-28T04:40:34;4.70;;;4.20;;
15393;SDS011;7795;47.986;11.868;2023-04-28T04:43:00;4.17;;;3.77;;
15393;SDS011;7795;47.986;11.868;2023-04-28T04:45:25;4.43;;;3.80;;
15393;SDS011;7795;47.986;11.868;2023-04-28T04:47:51;3.07;;;2.73;;
15393;SDS011;7795;47.986;11.868;2023-04-28T04:50:18;4.30;;;3.90;;
15393;SDS011;7795;47.986;11.868;2023-04-28T04:52:44;4.30;;;3.73;;
15393;SDS011;7795;47.986;11.868;2023-04-28T04:55:10;4.23;;;3.83;;
15393;SDS011;7795;47.986;11.868;2023-04-28T04:57:35;4.60;;;4.07;;
15393;SDS011;7795;47.986;11.868;2023-04-28T05:00:02;4.93;;;4.47;;
15393;SDS011;7795;47.986;11.868;2023-04-28T05:02:28;5.37;;;4.33;;
15393;SDS011;7795;47.986;11.868;2023-04-28T05:04:54;5.83;;;4.30;;
15393;SDS011;7795;47.986;11.868;2023-04-28T05:07:21;5.23;;;4.73;;
15393;SDS011;7795;47.986;11.868;2023-04-28T05:09:47;4.13;;;3.73;;
15393;SDS011;7795;47.986;11.868;2023-04-28T05:12:13;4.40;;;4.00;;
15393;SDS011;7795;47.986;11.868;2023-04-28T05:14:38;5.17;;;4.67;;
15393;SDS011;7795;47.986;11.868;2023-04-28T05:17:04;5.47;;;4.97;;
15393;SDS011;7795;47.986;11.868;2023-04-28T05:19:30;7.37;;;4.67;;
15393;SDS011;7795;47.986;11.868;2023-04-28T05:21:55;4.53;;;4.13;;
15393;SDS011;7795;47.986;11.868;2023-04-28T05:24:23;5.97;;;5.00;;
15393;SDS011;7795;47.986;11.868;2023-04-28T05:26:48;6.67;;;5.00;;
15393;SDS011;7795;47.986;11.868;2023-04-28T05:29:15;5.80;;;4.97;;
15393;SDS011;7795;47.986;11.868;2023-04-28T05:31:40;8.43;;;5.80;;
15393;SDS011;7795;47.986;11.868;2023-04-28T05:34:06;8.47;;;6.10;;
15393;SDS011;7795;47.986;11.868;2023-04-28T05:36:32;7.03;;;6.33;;
15393;SDS011;7795;47.986;11.868;2023-04-28T05:38:58;7.20;;;6.50;;
15393;SDS011;7795;47.986;11.868;2023-04-28T05:41:25;7.43;;;6.43;;
15393;SDS011;7795;47.986;11.868;2023-04-28T05:43:51;7.07;;;6.47;;
15393;SDS011;7795;47.986;11.868;2023-04-28T05:46:17;6.43;;;5.83;;
15393;SDS011;7795;47.986;11.868;2023-04-28T05:48:43;6.77;;;6.07;;
15393;SDS011;7795;47.986;11.868;2023-04-28T05:51:09;5.73;;;5.17;;
15393;SDS011;7795;47.986;11.868;2023-04-28T05:53:35;6.13;;;5.40;;
15393;SDS011;7795;47.986;11.868;2023-04-28T05:56:01;7.17;;;6.10;;
15393;SDS011;7795;47.986;11.868;2023-04-28T05:58:28;5.43;;;4.93;;
15393;SDS011;7795;47.986;11.868;2023-04-28T06:00:54;5.30;;;4.80;;
15393;SDS011;7795;47.986;11.868;2023-04-28T06:03:20;5.43;;;4.93;;
15393;SDS011;7795;47.986;11.868;2023-04-28T06:05:46;5.60;;;4.93;;
15393;SDS011;7795;47.986;11.868;2023-04-28T06:08:11;5.27;;;4.77;;
15393;SDS011;7795;47.986;11.868;2023-04-28T06:10:37;4.70;;;4.30;;
15393;SDS011;7795;47.986;11.868;2023-04-28T06:13:03;5.30;;;4.70;;
15393;SDS011;7795;47.986;11.868;2023-04-28T06:15:31;4.80;;;4.17;;
15393;SDS011;7795;47.986;11.868;2023-04-28T06:17:57;5.30;;;4.80;;
15393;SDS011;7795;47.986;11.868;2023-04-28T06:20:23;5.20;;;4.70;;
15393;SDS011;7795;47.986;11.868;2023-04-28T06:22:49;5.77;;;4.57;;
15393;SDS011;7795;47.986;11.868;2023-04-28T06:25:15;5.20;;;4.70;;
15393;SDS011;7795;47.986;11.868;2023-04-28T06:27:41;5.50;;;4.43;;
15393;SDS011;7795;47.986;11.868;2023-04-28T06:30:07;4.97;;;4.50;;
15393;SDS011;7795;47.986;11.868;2023-04-28T06:32:35;5.30;;;3.90;;
15393;SDS011;7795;47.986;11.868;2023-04-28T06:35:01;5.27;;;4.60;;
15393;SDS011;7795;47.986;11.868;2023-04-28T06:37:27;6.83;;;4.10;;
15393;SDS011;7795;47.986;11.868;2023-04-28T06:39:53;4.87;;;4.37;;
15393;SDS011;7795;47.986;11.868;2023-04-28T06:42:18;4.67;;;4.20;;
15393;SDS011;7795;47.986;11.868;2023-04-28T06:44:44;5.77;;;4.77;;
15393;SDS011;7795;47.986;11.868;2023-04-28T06:47:10;4.90;;;4.47;;
15393;SDS011;7795;47.986;11.868;2023-04-28T06:49:37;5.83;;;4.63;;
15393;SDS011;7795;47.986;11.868;2023-04-28T06:52:03;4.33;;;3.83;;
15393;SDS011;7795;47.986;11.868;2023-04-28T06:54:29;3.87;;;3.57;;
15393;SDS011;7795;47.986;11.868;2023-04-28T06:56:55;4.00;;;3.60;;
15393;SDS011;7795;47.986;11.868;2023-04-28T06:59:21;4.30;;;3.40;;
15393;SDS011;7795;47.986;11.868;2023-04-28T07:01:46;4.70;;;3.97;;
15393;SDS011;7795;47.986;11.868;2023-04-28T07:04:12;6.93;;;3.80;;
15393;SDS011;7795;47.986;11.868;2023-04-28T07:06:39;3.43;;;3.13;;
15393;SDS011;7795;47.986;11.868;2023-04-28T07:09:06;5.93;;;5.10;;
15393;SDS011;7795;47.986;11.868;2023-04-28T07:11:52;4.77;;;4.27;;
15393;SDS011;7795;47.986;11.868;2023-04-28T07:14:18;7.00;;;5.63;;
15393;SDS011;7795;47.986;11.868;2023-04-28T07:16:44;4.80;;;4.23;;
15393;SDS011;7795;47.986;11.868;2023-04-28T07:19:10;4.73;;;4.00;;
15393;SDS011;7795;47.986;11.868;2023-04-28T07:21:36;4.23;;;3.60;;
15393;SDS011;7795;47.986;11.868;2023-04-28T07:24:03;4.30;;;3.70;;
15393;SDS011;7795;47.986;11.868;2023-04-28T07:26:29;3.77;;;3.47;;
15393;SDS011;7795;47.986;11.868;2023-04-28T07:28:57;4.50;;;4.10;;
15393;SDS011;7795;47.986;11.868;2023-04-28T07:31:23;5.13;;;4.63;;
15393;SDS011;7795;47.986;11.868;2023-04-28T07:33:50;5.90;;;4.63;;
15393;SDS011;7795;47.986;11.868;2023-04-28T07:36:16;5.73;;;4.70;;
15393;SDS011;7795;47.986;11.868;2023-04-28T07:38:41;6.23;;;3.90;;
15393;SDS011;7795;47.986;11.868;2023-04-28T07:41:09;9.50;;;7.60;;
15393;SDS011;7795;47.986;11.868;2023-04-28T07:43:34;5.27;;;4.63;;
15393;SDS011;7795;47.986;11.868;2023-04-28T07:46:00;3.87;;;3.40;;
15393;SDS011;7795;47.986;11.868;2023-04-28T07:48:26;2.87;;;2.60;;
15393;SDS011;7795;47.986;11.868;2023-04-28T07:50:52;3.80;;;3.43;;
15393;SDS011;7795;47.986;11.868;2023-04-28T07:53:18;2.90;;;2.53;;
15393;SDS011;7795;47.986;11.868;2023-04-28T07:55:44;4.27;;;3.17;;
15393;SDS011;7795;47.986;11.868;2023-04-28T07:58:11;3.20;;;2.90;;
15393;SDS011;7795;47.986;11.868;2023-04-28T08:00:37;3.73;;;2.90;;
15393;SDS011;7795;47.986;11.868;2023-04-28T08:03:03;3.10;;;2.80;;
15393;SDS011;7795;47.986;11.868;2023-04-28T08:05:29;3.73;;;2.50;;
15393;SDS011;7795;47.986;11.868;2023-04-28T08:07:56;5.00;;;2.70;;
15393;SDS011;7795;47.986;11.868;2023-04-28T08:10:23;3.33;;;2.27;;
15393;SDS011;7795;47.986;11.868;2023-04-28T08:12:50;2.57;;;2.37;;
15393;SDS011;7795;47.986;11.868;2023-04-28T08:15:17;2.60;;;2.30;;
15393;SDS011;7795;47.986;11.868;2023-04-28T08:17:43;3.83;;;2.43;;
15393;SDS011;7795;47.986;11.868;2023-04-28T08:20:09;2.57;;;2.30;;
15393;SDS011;7795;47.986;11.868;2023-04-28T08:22:36;3.53;;;2.20;;
15393;SDS011;7795;47.986;11.868;2023-04-28T08:25:02;2.80;;;2.23;;
15393;SDS011;7795;47.986;11.868;2023-04-28T08:27:28;2.90;;;2.23;;
15393;SDS011;7795;47.986;11.868;2023-04-28T08:29:55;2.60;;;2.40;;
15393;SDS011;7795;47.986;11.868;2023-04-28T08:32:22;2.27;;;1.97;;
15393;SDS011;7795;47.986;11.868;2023-04-28T08:34:48;2.43;;;2.23;;
15393;SDS011;7795;47.986;11.868;2023-04-28T08:37:14;1.93;;;1.70;;
15393;SDS011;7795;47.986;11.868;2023-04-28T08:39:40;2.20;;;1.60;;
15393;SDS011;7795;47.986;11.868;2023-04-28T08:42:06;3.20;;;1.97;;
15393;SDS011;7795;47.986;11.868;2023-04-28T08:44:35;4.33;;;2.33;;
15393;SDS011;7795;47.986;11.868;2023-04-28T08:47:03;3.33;;;2.10;;
15393;SDS011;7795;47.986;11.868;2023-04-28T08:49:36;3.37;;;2.23;;
15393;SDS011;7795;47.986;11.868;2023-04-28T08:52:04;3.03;;;2.33;;
15393;SDS011;7795;47.986;11.868;2023-04-28T08:54:35;3.10;;;2.43;;
15393;SDS011;7795;47.986;11.868;2023-04-28T08:57:02;3.27;;;2.70;;
15393;SDS011;7795;47.986;11.868;2023-04-28T08:59:29;2.83;;;2.30;;
15393;SDS011;7795;47.986;11.868;2023-04-28T09:01:55;2.97;;;2.40;;
15393;SDS011;7795;47.986;11.868;2023-04-28T09:04:21;2.90;;;2.63;;
15393;SDS011;7795;47.986;11.868;2023-04-28T09:06:48;3.50;;;2.90;;
15393;SDS011;7795;47.986;11.868;2023-04-28T09:09:18;3.70;;;3.10;;
15393;SDS011;7795;47.986;11.868;2023-04-28T09:11:52;3.03;;;2.60;;
15393;SDS011;7795;47.986;11.868;2023-04-28T09:14:19;2.70;;;2.50;;
15393;SDS011;7795;47.986;11.868;2023-04-28T09:16:46;3.57;;;2.80;;
15393;SDS011;7795;47.986;11.868;2023-04-28T09:19:11;3.60;;;2.77;;
15393;SDS011;7795;47.986;11.868;2023-04-28T09:21:44;5.07;;;3.03;;
15393;SDS011;7795;47.986;11.868;2023-04-28T09:24:16;4.13;;;3.17;;
15393;SDS011;7795;47.986;11.868;2023-04-28T09:26:50;3.60;;;2.70;;
15393;SDS011;7795;47.986;11.868;2023-04-28T09:29:16;4.90;;;2.63;;
15393;SDS011;7795;47.986;11.868;2023-04-28T09:31:42;3.13;;;2.57;;
15393;SDS011;7795;47.986;11.868;2023-04-28T09:34:08;4.80;;;3.27;;
15393;SDS011;7795;47.986;11.868;2023-04-28T09:36:36;3.20;;;2.90;;
15393;SDS011;7795;47.986;11.868;2023-04-28T09:39:02;4.53;;;2.83;;
15393;SDS011;7795;47.986;11.868;2023-04-28T09:41:36;3.20;;;2.90;;
15393;SDS011;7795;47.986;11.868;2023-04-28T09:44:11;3.90;;;3.03;;
15393;SDS011;7795;47.986;11.868;2023-04-28T09:46:38;3.07;;;2.70;;
15393;SDS011;7795;47.986;11.868;2023-04-28T09:49:04;2.73;;;2.53;;
15393;SDS011;7795;47.986;11.868;2023-04-28T09:51:30;2.60;;;2.30;;
15393;SDS011;7795;47.986;11.868;2023-04-28T09:53:57;3.03;;;2.33;;
15393;SDS011;7795;47.986;11.868;2023-04-28T09:56:25;3.43;;;2.90;;
15393;SDS011;7795;47.986;11.868;2023-04-28T09:58:53;2.70;;;2.50;;
15393;SDS011;7795;47.986;11.868;2023-04-28T10:01:20;3.33;;;2.73;;
15393;SDS011;7795;47.986;11.868;2023-04-28T10:03:46;3.13;;;2.93;;
15393;SDS011;7795;47.986;11.868;2023-04-28T10:06:13;5.17;;;3.23;;
15393;SDS011;7795;47.986;11.868;2023-04-28T10:08:40;3.73;;;3.10;;
15393;SDS011;7795;47.986;11.868;2023-04-28T10:11:05;4.17;;;2.77;;
15393;SDS011;7795;47.986;11.868;2023-04-28T10:13:33;4.03;;;3.10;;
15393;SDS011;7795;47.986;11.868;2023-04-28T10:16:02;3.40;;;3.07;;
15393;SDS011;7795;47.986;11.868;2023-04-28T10:18:29;3.40;;;2.87;;
15393;SDS011;7795;47.986;11.868;2023-04-28T10:20:56;4.47;;;3.33;;
15393;SDS011;7795;47.986;11.868;2023-04-28T10:26:34;3.90;;;2.83;;
15393;SDS011;7795;47.986;11.868;2023-04-28T10:29:15;4.20;;;2.97;;
15393;SDS011;7795;47.986;11.868;2023-04-28T10:31:55;3.40;;;3.10;;
15393;SDS011;7795;47.986;11.868;2023-04-28T10:34:39;2.90;;;2.60;;
15393;SDS011;7795;47.986;11.868;2023-04-28T10:37:05;3.23;;;2.90;;
15393;SDS011;7795;47.986;11.868;2023-04-28T10:39:31;3.97;;;2.93;;
15393;SDS011;7795;47.986;11.868;2023-04-28T10:41:57;3.60;;;2.77;;
15393;SDS011;7795;47.986;11.868;2023-04-28T10:44:41;3.47;;;2.87;;
15393;SDS011;7795;47.986;11.868;2023-04-28T10:47:09;3.50;;;3.00;;
15393;SDS011;7795;47.986;11.868;2023-04-28T10:52:49;3.67;;;3.17;;
15393;SDS011;7795;47.986;11.868;2023-04-28T10:55:31;3.67;;;2.97;;
15393;SDS011;7795;47.986;11.868;2023-04-28T11:01:03;4.63;;;2.83;;
15393;SDS011;7795;47.986;11.868;2023-04-28T11:03:50;3.57;;;2.70;;
15393;SDS011;7795;47.986;11.868;2023-04-28T11:06:37;2.90;;;2.57;;
15393;SDS011;7795;47.986;11.868;2023-04-28T11:12:13;3.80;;;2.93;;
15393;SDS011;7795;47.986;11.868;2023-04-28T11:14:40;3.40;;;2.60;;
15393;SDS011;7795;47.986;11.868;2023-04-28T11:17:06;4.77;;;3.03;;
15393;SDS011;7795;47.986;11.868;2023-04-28T11:19:35;3.90;;;2.77;;
15393;SDS011;7795;47.986;11.868;2023-04-28T11:22:02;3.57;;;3.07;;
15393;SDS011;7795;47.986;11.868;2023-04-28T11:24:33;5.20;;;2.93;;
15393;SDS011;7795;47.986;11.868;2023-04-28T11:27:00;3.33;;;3.03;;
15393;SDS011;7795;47.986;11.868;2023-04-28T11:29:29;4.03;;;3.63;;
15393;SDS011;7795;47.986;11.868;2023-04-28T11:31:56;4.50;;;3.60;;
15393;SDS011;7795;47.986;11.868;2023-04-28T11:34:22;3.70;;;3.03;;
15393;SDS011;7795;47.986;11.868;2023-04-28T11:36:50;4.77;;;3.83;;
15393;SDS011;7795;47.986;11.868;2023-04-28T11:39:16;5.73;;;3.77;;
15393;SDS011;7795;47.986;11.868;2023-04-28T11:41:50;3.53;;;3.00;;
15393;SDS011;7795;47.986;11.868;2023-04-28T11:44:16;3.77;;;2.90;;
15393;SDS011;7795;47.986;11.868;2023-04-28T11:46:44;4.67;;;2.60;;
15393;SDS011;7795;47.986;11.868;2023-04-28T11:49:14;8.60;;;6.40;;
15393;SDS011;7795;47.986;11.868;2023-04-28T11:51:40;5.13;;;3.73;;
15393;SDS011;7795;47.986;11.868;2023-04-28T11:54:08;3.30;;;2.30;;
15393;SDS011;7795;47.986;11.868;2023-04-28T11:56:39;4.10;;;1.80;;
15393;SDS011;7795;47.986;11.868;2023-04-28T11:59:06;1.77;;;1.40;;
15393;SDS011;7795;47.986;11.868;2023-04-28T12:01:33;2.43;;;1.47;;
15393;SDS011;7795;47.986;11.868;2023-04-28T12:04:02;1.53;;;1.20;;
15393;SDS011;7795;47.986;11.868;2023-04-28T12:06:28;2.07;;;1.00;;
15393;SDS011;7795;47.986;11.868;2023-04-28T12:08:54;2.33;;;1.50;;
15393;SDS011;7795;47.986;11.868;2023-04-28T12:11:21;1.67;;;1.20;;
15393;SDS011;7795;47.986;11.868;2023-04-28T12:14:05;3.33;;;1.27;;
15393;SDS011;7795;47.986;11.868;2023-04-28T12:16:35;2.43;;;0.90;;
15393;SDS011;7795;47.986;11.868;2023-04-28T12:19:03;0.97;;;0.80;;
15393;SDS011;7795;47.986;11.868;2023-04-28T12:21:32;1.73;;;0.77;;
15393;SDS011;7795;47.986;11.868;2023-04-28T12:23:57;1.37;;;1.20;;
15393;SDS011;7795;47.986;11.868;2023-04-28T12:26:24;1.33;;;0.90;;
15393;SDS011;7795;47.986;11.868;2023-04-28T12:28:51;0.83;;;0.70;;
15393;SDS011;7795;47.986;11.868;2023-04-28T12:31:16;1.00;;;0.60;;
15393;SDS011;7795;47.986;11.868;2023-04-28T12:33:42;2.00;;;1.00;;
15393;SDS011;7795;47.986;11.868;2023-04-28T12:36:08;1.03;;;0.70;;
15393;SDS011;7795;47.986;11.868;2023-04-28T12:38:34;2.07;;;0.70;;
15393;SDS011;7795;47.986;11.868;2023-04-28T12:41:02;0.63;;;0.60;;
15393;SDS011;7795;47.986;11.868;2023-04-28T12:43:30;0.47;;;0.47;;
15393;SDS011;7795;47.986;11.868;2023-04-28T12:45:56;2.73;;;1.73;;
15393;SDS011;7795;47.986;11.868;2023-04-28T12:48:22;1.50;;;0.80;;
15393;SDS011;7795;47.986;11.868;2023-04-28T12:50:51;0.83;;;0.83;;
15393;SDS011;7795;47.986;11.868;2023-04-28T12:53:17;0.63;;;0.63;;
15393;SDS011;7795;47.986;11.868;2023-04-28T12:55:42;0.63;;;0.60;;
15393;SDS011;7795;47.986;11.868;2023-04-28T12:58:08;0.90;;;0.53;;
15393;SDS011;7795;47.986;11.868;2023-04-28T13:00:35;1.03;;;0.87;;
15393;SDS011;7795;47.986;11.868;2023-04-28T13:03:01;0.70;;;0.70;;
15393;SDS011;7795;47.986;11.868;2023-04-28T13:05:27;0.50;;;0.50;;
15393;SDS011;7795;47.986;11.868;2023-04-28T13:07:53;1.47;;;0.67;;
15393;SDS011;7795;47.986;11.868;2023-04-28T13:10:19;0.70;;;0.70;;
15393;SDS011;7795;47.986;11.868;2023-04-28T13:12:47;1.30;;;1.13;;
15393;SDS011;7795;47.986;11.868;2023-04-28T13:15:13;1.20;;;1.00;;
15393;SDS011;7795;47.986;11.868;2023-04-28T13:17:40;1.70;;;0.70;;
15393;SDS011;7795;47.986;11.868;2023-04-28T13:20:06;1.10;;;0.53;;
15393;SDS011;7795;47.986;11.868;2023-04-28T13:22:33;0.83;;;0.67;;
15393;SDS011;7795;47.986;11.868;2023-04-28T13:24:58;0.70;;;0.70;;
15393;SDS011;7795;47.986;11.868;2023-04-28T13:27:24;0.40;;;0.40;;
15393;SDS011;7795;47.986;11.868;2023-04-28T13:29:50;0.70;;;0.70;;
15393;SDS011;7795;47.986;11.868;2023-04-28T13:32:16;0.60;;;0.60;;
15393;SDS011;7795;47.986;11.868;2023-04-28T13:34:43;0.70;;;0.53;;
15393;SDS011;7795;47.986;11.868;2023-04-28T13:37:09;0.63;;;0.60;;
15393;SDS011;7795;47.986;11.868;2023-04-28T13:39:35;1.07;;;0.77;;
15393;SDS011;7795;47.986;11.868;2023-04-28T13:42:01;1.30;;;1.03;;
15393;SDS011;7795;47.986;11.868;2023-04-28T13:44:26;3.73;;;2.27;;
15393;SDS011;7795;47.986;11.868;2023-04-28T13:46:52;4.10;;;2.67;;
15393;SDS011;7795;47.986;11.868;2023-04-28T13:49:18;3.17;;;2.50;;
15393;SDS011;7795;47.986;11.868;2023-04-28T13:51:45;1.37;;;1.13;;
15393;SDS011;7795;47.986;11.868;2023-04-28T13:54:11;0.80;;;0.80;;
15393;SDS011;7795;47.986;11.868;2023-04-28T13:56:37;0.80;;;0.80;;
15393;SDS011;7795;47.986;11.868;2023-04-28T13:59:03;0.60;;;0.60;;
15393;SDS011;7795;47.986;11.868;2023-04-28T14:01:29;0.60;;;0.60;;
15393;SDS011;7795;47.986;11.868;2023-04-28T14:03:55;0.87;;;0.60;;
15393;SDS011;7795;47.986;11.868;2023-04-28T14:06:21;0.70;;;0.70;;
15393;SDS011;7795;47.986;11.868;2023-04-28T14:08:48;2.47;;;0.50;;
15393;SDS011;7795;47.986;11.868;2023-04-28T14:11:14;1.40;;;0.90;;
15393;SDS011;7795;47.986;11.868;2023-04-28T14:13:40;1.70;;;0.63;;
15393;SDS011;7795;47.986;11.868;2023-04-28T14:16:06;1.13;;;0.50;;
15393;SDS011;7795;47.986;11.868;2023-04-28T14:18:33;1.23;;;0.60;;
15393;SDS011;7795;47.986;11.868;2023-04-28T14:20:58;1.10;;;0.63;;
15393;SDS011;7795;47.986;11.868;2023-04-28T14:23:26;0.80;;;0.80;;
15393;SDS011;7795;47.986;11.868;2023-04-28T14:25:53;1.13;;;0.80;;
15393;SDS011;7795;47.986;11.868;2023-04-28T14:28:22;6.47;;;1.57;;
15393;SDS011;7795;47.986;11.868;2023-04-28T14:30:48;1.00;;;0.90;;
15393;SDS011;7795;47.986;11.868;2023-04-28T14:33:14;1.50;;;0.57;;
15393;SDS011;7795;47.986;11.868;2023-04-28T14:35:39;0.83;;;0.57;;
15393;SDS011;7795;47.986;11.868;2023-04-28T14:38:05;2.00;;;1.03;;
15393;SDS011;7795;47.986;11.868;2023-04-28T14:40:31;1.13;;;0.67;;
15393;SDS011;7795;47.986;11.868;2023-04-28T14:42:58;1.43;;;0.80;;
15393;SDS011;7795;47.986;11.868;2023-04-28T14:45:24;1.23;;;0.70;;
15393;SDS011;7795;47.986;11.868;2023-04-28T14:47:50;0.87;;;0.50;;
15393;SDS011;7795;47.986;11.868;2023-04-28T14:50:16;0.67;;;0.40;;
15393;SDS011;7795;47.986;11.868;2023-04-28T14:52:42;0.87;;;0.50;;
15393;SDS011;7795;47.986;11.868;2023-04-28T14:55:08;0.80;;;0.70;;
15393;SDS011;7795;47.986;11.868;2023-04-28T14:57:34;0.73;;;0.60;;